createdAt,value
2023-05-20T00:00:23.059Z,99.90
2023-05-20T00:01:25.293Z,99.90
2023-05-20T00:02:27.761Z,99.90
2023-05-20T00:03:30.197Z,99.90
2023-05-20T00:04:32.533Z,99.90
2023-05-20T00:05:35.052Z,99.90
2023-05-20T00:06:37.305Z,99.90
2023-05-20T00:07:39.894Z,99.90
2023-05-20T00:08:42.198Z,99.90
2023-05-20T00:09:44.635Z,99.90
2023-05-20T00:10:46.816Z,99.90
2023-05-20T00:11:49.213Z,99.90
2023-05-20T00:12:51.343Z,99.90
2023-05-20T00:13:53.503Z,99.90
2023-05-20T00:14:57.307Z,99.90
2023-05-20T00:15:59.617Z,99.90
2023-05-20T00:17:01.895Z,99.90
2023-05-20T00:18:04.475Z,99.90
2023-05-20T00:19:06.823Z,99.90
2023-05-20T00:20:11.305Z,99.90
2023-05-20T00:21:13.557Z,99.90
2023-05-20T00:22:15.918Z,99.90
2023-05-20T00:23:18.060Z,99.90
2023-05-20T00:24:20.237Z,99.90
2023-05-20T00:25:22.441Z,99.90
2023-05-20T00:26:24.623Z,99.90
2023-05-20T00:27:27.319Z,99.90
2023-05-20T00:28:30.563Z,99.90
2023-05-20T00:29:34.315Z,99.90
2023-05-20T00:30:40.216Z,99.90
2023-05-20T00:31:42.546Z,99.90
2023-05-20T00:32:44.875Z,99.90
2023-05-20T00:33:47.150Z,99.90
2023-05-20T00:34:57.357Z,99.90
2023-05-20T00:35:59.557Z,99.90
2023-05-20T00:37:01.783Z,99.90
2023-05-20T00:38:03.940Z,99.90
2023-05-20T00:39:06.408Z,99.90
2023-05-20T00:40:09.422Z,99.90
2023-05-20T00:41:11.614Z,99.90
2023-05-20T00:42:20.851Z,99.90
2023-05-20T00:43:25.508Z,99.90
2023-05-20T00:44:27.842Z,99.90
2023-05-20T00:45:30.950Z,99.90
2023-05-20T00:46:35.922Z,99.90
2023-05-20T00:47:39.608Z,99.90
2023-05-20T00:48:43.775Z,99.90
2023-05-20T00:49:49.640Z,99.90
2023-05-20T00:50:52.653Z,99.90
2023-05-20T00:51:55.007Z,99.90
2023-05-20T00:52:57.224Z,99.90
2023-05-20T00:53:59.522Z,99.90
2023-05-20T00:55:01.861Z,99.90
2023-05-20T00:56:05.100Z,99.90
2023-05-20T00:57:08.496Z,99.90
2023-05-20T00:58:11.518Z,99.90
2023-05-20T00:59:14.207Z,99.90
2023-05-20T01:00:16.651Z,99.90
2023-05-20T01:01:19.019Z,99.90
2023-05-20T01:02:22.896Z,99.90
2023-05-20T01:03:25.754Z,99.90
2023-05-20T01:04:28.251Z,99.90
2023-05-20T01:05:30.640Z,99.90
2023-05-20T01:06:33.905Z,99.90
2023-05-20T01:07:36.430Z,99.90
2023-05-20T01:08:38.707Z,99.90
2023-05-20T01:09:41.426Z,99.90
2023-05-20T01:10:47.676Z,99.90
2023-05-20T01:11:55.955Z,99.90
2023-05-20T01:13:02.118Z,99.90
2023-05-20T01:14:07.109Z,99.90
2023-05-20T01:15:11.305Z,99.90
2023-05-20T01:16:16.929Z,99.90
2023-05-20T01:17:27.261Z,99.90
2023-05-20T01:18:32.586Z,99.90
2023-05-20T01:19:38.694Z,99.90
2023-05-20T01:20:40.999Z,99.90
2023-05-20T01:21:45.712Z,99.90
2023-05-20T01:22:49.729Z,99.90
2023-05-20T01:23:51.928Z,99.90
2023-05-20T01:24:54.227Z,99.90
2023-05-20T01:25:56.404Z,99.90
2023-05-20T01:26:58.548Z,99.90
2023-05-20T01:28:01.882Z,99.90
2023-05-20T01:29:04.453Z,99.90
2023-05-20T01:30:08.105Z,99.90
2023-05-20T01:32:37.439Z,99.90
2023-05-20T01:33:43.563Z,99.90
2023-05-20T01:34:50.095Z,99.90
2023-05-20T01:35:52.362Z,99.90
2023-05-20T01:36:55.801Z,99.90
2023-05-20T01:38:00.220Z,99.90
2023-05-20T01:39:03.727Z,99.90
2023-05-20T01:40:08.916Z,99.90
2023-05-20T01:41:12.436Z,99.90
2023-05-20T01:42:16.679Z,99.90
2023-05-20T01:43:18.934Z,99.90
2023-05-20T01:44:21.621Z,99.90
2023-05-20T01:45:25.499Z,99.90
2023-05-20T01:46:27.868Z,99.90
2023-05-20T01:47:30.160Z,99.90
2023-05-20T01:48:32.359Z,99.90
2023-05-20T01:49:34.558Z,99.90
2023-05-20T01:50:36.842Z,99.90
2023-05-20T01:51:39.147Z,99.90
2023-05-20T01:52:41.395Z,99.90
2023-05-20T01:53:44.990Z,99.90
2023-05-20T01:54:51.157Z,99.90
2023-05-20T01:55:53.388Z,99.90
2023-05-20T01:56:56.429Z,99.90
2023-05-20T01:57:58.705Z,99.90
2023-05-20T01:59:00.884Z,99.90
2023-05-20T02:00:03.914Z,99.90
2023-05-20T02:01:06.270Z,99.90
2023-05-20T02:02:08.491Z,99.90
2023-05-20T02:03:11.395Z,99.90
2023-05-20T02:04:13.635Z,99.90
2023-05-20T02:05:16.395Z,99.90
2023-05-20T02:06:18.712Z,99.90
2023-05-20T02:07:21.100Z,99.90
2023-05-20T02:08:23.364Z,99.90
2023-05-20T02:09:26.967Z,99.90
2023-05-20T02:10:29.195Z,99.90
2023-05-20T02:11:31.407Z,99.90
2023-05-20T02:12:33.627Z,99.90
2023-05-20T02:13:35.909Z,99.90
2023-05-20T02:14:38.149Z,99.90
2023-05-20T02:15:42.322Z,99.90
2023-05-20T02:16:44.512Z,99.90
2023-05-20T02:17:47.303Z,99.90
2023-05-20T02:18:51.672Z,99.90
2023-05-20T02:19:53.904Z,99.90
2023-05-20T02:20:56.039Z,99.90
2023-05-20T02:21:58.279Z,99.90
2023-05-20T02:23:00.632Z,99.90
2023-05-20T02:24:02.832Z,99.90
2023-05-20T02:25:08.469Z,99.90
2023-05-20T02:26:10.750Z,99.90
2023-05-20T02:27:13.281Z,99.90
2023-05-20T02:28:16.265Z,99.90
2023-05-20T02:29:18.544Z,99.90
2023-05-20T02:30:20.792Z,99.90
2023-05-20T02:31:23.043Z,99.90
2023-05-20T02:32:28.630Z,99.90
2023-05-20T02:33:31.072Z,99.90
2023-05-20T02:34:33.711Z,99.90
2023-05-20T02:35:36.016Z,99.90
2023-05-20T02:36:38.242Z,99.90
2023-05-20T02:37:40.605Z,99.90
2023-05-20T02:38:43.043Z,99.90
2023-05-20T02:39:45.333Z,99.90
2023-05-20T02:40:48.877Z,99.90
2023-05-20T02:41:51.140Z,99.90
2023-05-20T02:42:53.373Z,99.90
2023-05-20T02:43:55.527Z,99.90
2023-05-20T02:44:58.871Z,99.90
2023-05-20T02:46:01.123Z,99.90
2023-05-20T02:47:03.363Z,99.90
2023-05-20T02:48:06.073Z,99.90
2023-05-20T02:49:08.313Z,99.90
2023-05-20T02:50:10.985Z,99.90
2023-05-20T02:51:13.169Z,99.90
2023-05-20T02:52:16.537Z,99.90
2023-05-20T02:53:18.771Z,99.90
2023-05-20T02:54:21.404Z,99.90
2023-05-20T02:55:23.895Z,99.90
2023-05-20T02:56:28.770Z,99.90
2023-05-20T02:57:31.460Z,99.90
2023-05-20T02:58:35.806Z,99.90
2023-05-20T02:59:38.124Z,99.90
2023-05-20T03:00:43.467Z,99.90
2023-05-20T03:01:45.779Z,99.90
2023-05-20T03:02:48.040Z,99.90
2023-05-20T03:03:50.792Z,99.90
2023-05-20T03:04:54.119Z,99.90
2023-05-20T03:05:56.324Z,99.90
2023-05-20T03:06:58.495Z,99.90
2023-05-20T03:08:01.513Z,99.90
2023-05-20T03:09:03.810Z,99.90
2023-05-20T03:10:08.083Z,99.90
2023-05-20T03:11:10.317Z,99.90
2023-05-20T03:12:14.016Z,99.90
2023-05-20T03:13:16.331Z,99.90
2023-05-20T03:14:18.521Z,99.90
2023-05-20T03:15:20.785Z,99.90
2023-05-20T03:16:23.061Z,99.90
2023-05-20T03:17:25.372Z,99.90
2023-05-20T03:18:27.633Z,99.90
2023-05-20T03:19:29.933Z,99.90
2023-05-20T03:20:38.745Z,99.90
2023-05-20T03:21:41.293Z,99.90
2023-05-20T03:22:43.504Z,99.90
2023-05-20T03:23:45.732Z,99.90
2023-05-20T03:24:48.566Z,99.90
2023-05-20T03:25:50.853Z,99.90
2023-05-20T03:26:53.350Z,99.90
2023-05-20T03:27:58.443Z,99.90
2023-05-20T03:29:00.690Z,99.90
2023-05-20T03:30:02.899Z,99.90
2023-05-20T03:31:05.300Z,99.90
2023-05-20T03:32:10.153Z,99.90
2023-05-20T03:33:13.166Z,99.90
2023-05-20T03:34:16.059Z,99.90
2023-05-20T03:35:18.469Z,99.90
2023-05-20T03:36:20.828Z,99.90
2023-05-20T03:37:23.021Z,99.90
2023-05-20T03:38:25.352Z,99.90
2023-05-20T03:39:27.564Z,99.90
2023-05-20T03:40:29.789Z,99.90
2023-05-20T03:41:33.308Z,99.90
2023-05-20T03:42:35.749Z,99.90
2023-05-20T03:43:39.483Z,99.90
2023-05-20T03:44:41.650Z,99.90
2023-05-20T03:45:43.864Z,99.90
2023-05-20T03:46:46.225Z,99.90
2023-05-20T03:47:48.513Z,99.90
2023-05-20T03:48:50.896Z,99.90
2023-05-20T03:49:53.389Z,99.90
2023-05-20T03:50:55.720Z,99.90
2023-05-20T03:51:57.930Z,99.90
2023-05-20T03:53:00.162Z,99.90
2023-05-20T03:54:02.314Z,99.90
2023-05-20T03:55:05.025Z,99.90
2023-05-20T03:56:07.367Z,99.90
2023-05-20T03:57:10.661Z,99.90
2023-05-20T03:58:13.789Z,99.90
2023-05-20T03:59:18.017Z,99.90
2023-05-20T04:00:20.186Z,99.90
2023-05-20T04:01:25.765Z,99.90
2023-05-20T04:02:28.227Z,99.90
2023-05-20T04:03:31.564Z,99.90
2023-05-20T04:04:33.860Z,99.90
2023-05-20T04:05:37.354Z,99.90
2023-05-20T04:06:40.846Z,99.70
2023-05-20T04:07:43.082Z,99.20
2023-05-20T04:08:46.962Z,98.80
2023-05-20T04:09:49.159Z,98.50
2023-05-20T04:10:51.317Z,98.20
2023-05-20T04:11:53.585Z,98.10
2023-05-20T04:12:55.883Z,97.90
2023-05-20T04:14:00.442Z,97.70
2023-05-20T04:15:08.301Z,97.50
2023-05-20T04:16:10.582Z,97.30
2023-05-20T04:17:12.874Z,96.90
2023-05-20T04:18:15.194Z,96.50
2023-05-20T04:19:22.292Z,96.00
2023-05-20T04:20:24.706Z,95.60
2023-05-20T04:21:27.335Z,95.40
2023-05-20T04:22:29.890Z,95.10
2023-05-20T04:23:32.182Z,95.00
2023-05-20T04:24:34.340Z,94.60
2023-05-20T04:25:36.732Z,94.30
2023-05-20T04:26:39.878Z,93.90
2023-05-20T04:27:42.109Z,93.60
2023-05-20T04:28:44.293Z,93.20
2023-05-20T04:29:47.477Z,92.80
2023-05-20T04:30:59.272Z,92.50
2023-05-20T04:32:01.669Z,92.20
2023-05-20T04:33:04.174Z,92.00
2023-05-20T04:34:06.577Z,91.80
2023-05-20T04:35:12.206Z,91.60
2023-05-20T04:36:16.619Z,91.30
2023-05-20T04:37:21.206Z,90.90
2023-05-20T04:38:23.402Z,90.60
2023-05-20T04:39:26.972Z,90.40
2023-05-20T04:40:29.222Z,90.30
2023-05-20T04:41:31.478Z,90.10
2023-05-20T04:42:37.911Z,89.90
2023-05-20T04:43:40.610Z,89.10
2023-05-20T04:44:42.801Z,88.20
2023-05-20T04:45:45.971Z,88.30
2023-05-20T04:46:49.508Z,88.40
2023-05-20T04:47:53.484Z,88.30
2023-05-20T04:48:56.178Z,87.90
2023-05-20T04:49:58.875Z,87.20
2023-05-20T04:51:01.421Z,86.80
2023-05-20T04:52:04.782Z,86.80
2023-05-20T04:53:07.970Z,87.00
2023-05-20T04:54:10.348Z,86.60
2023-05-20T04:55:13.545Z,86.10
2023-05-20T04:56:15.735Z,85.70
2023-05-20T04:57:21.157Z,85.20
2023-05-20T04:58:25.223Z,84.90
2023-05-20T04:59:27.606Z,85.00
2023-05-20T05:00:30.545Z,84.50
2023-05-20T05:01:32.823Z,84.20
2023-05-20T05:02:36.615Z,83.70
2023-05-20T05:03:38.906Z,83.10
2023-05-20T05:04:41.581Z,82.80
2023-05-20T05:05:44.980Z,82.30
2023-05-20T05:06:48.423Z,81.50
2023-05-20T05:07:50.677Z,81.30
2023-05-20T05:08:52.886Z,81.00
2023-05-20T05:09:55.139Z,80.60
2023-05-20T05:10:57.357Z,80.20
2023-05-20T05:11:59.545Z,80.10
2023-05-20T05:13:01.927Z,79.60
2023-05-20T05:14:04.134Z,79.30
2023-05-20T05:15:07.533Z,78.60
2023-05-20T05:16:09.758Z,78.40
2023-05-20T05:17:11.986Z,77.90
2023-05-20T05:18:18.689Z,77.50
2023-05-20T05:19:21.018Z,76.90
2023-05-20T05:20:23.364Z,76.50
2023-05-20T05:21:25.491Z,76.50
2023-05-20T05:22:27.659Z,76.60
2023-05-20T05:23:30.163Z,76.30
2023-05-20T05:24:32.406Z,76.30
2023-05-20T05:25:34.755Z,76.00
2023-05-20T05:26:37.593Z,76.20
2023-05-20T05:27:40.162Z,75.80
2023-05-20T05:28:43.511Z,75.20
2023-05-20T05:29:45.725Z,75.00
2023-05-20T05:30:47.959Z,74.60
2023-05-20T05:31:50.171Z,73.90
2023-05-20T05:32:52.728Z,73.60
2023-05-20T05:33:56.496Z,73.40
2023-05-20T05:34:58.962Z,73.20
2023-05-20T05:36:02.634Z,73.10
2023-05-20T05:37:05.154Z,72.90
2023-05-20T05:38:07.391Z,72.90
2023-05-20T05:39:09.560Z,72.70
2023-05-20T05:40:12.518Z,72.80
2023-05-20T05:41:14.933Z,72.80
2023-05-20T05:42:17.594Z,72.00
2023-05-20T05:43:19.987Z,71.80
2023-05-20T05:44:22.173Z,71.30
2023-05-20T05:45:24.408Z,70.30
2023-05-20T05:46:26.587Z,69.80
2023-05-20T05:47:32.691Z,69.70
2023-05-20T05:48:36.124Z,69.60
2023-05-20T05:49:39.715Z,69.10
2023-05-20T05:50:44.989Z,68.70
2023-05-20T05:51:47.209Z,68.20
2023-05-20T05:52:49.490Z,68.30
2023-05-20T05:53:51.674Z,68.00
2023-05-20T05:54:54.391Z,67.40
2023-05-20T05:55:56.541Z,67.30
2023-05-20T05:56:58.952Z,67.70
2023-05-20T05:58:01.163Z,67.70
2023-05-20T05:59:04.629Z,67.30
2023-05-20T06:00:08.088Z,67.20
2023-05-20T06:01:10.421Z,66.80
2023-05-20T06:02:14.696Z,66.40
2023-05-20T06:03:17.086Z,66.00
2023-05-20T06:04:19.328Z,66.00
2023-05-20T06:05:22.951Z,66.70
2023-05-20T06:06:25.207Z,66.90
2023-05-20T06:07:27.392Z,66.60
2023-05-20T06:08:29.905Z,66.10
2023-05-20T06:09:32.126Z,65.70
2023-05-20T06:10:34.334Z,65.70
2023-05-20T06:11:36.528Z,65.80
2023-05-20T06:12:38.818Z,66.00
2023-05-20T06:13:41.027Z,65.80
2023-05-20T06:14:43.502Z,65.40
2023-05-20T06:15:46.544Z,65.10
2023-05-20T06:16:48.907Z,64.70
2023-05-20T06:17:51.282Z,64.30
2023-05-20T06:18:57.268Z,64.10
2023-05-20T06:20:00.194Z,63.60
2023-05-20T06:21:04.867Z,63.60
2023-05-20T06:22:07.034Z,63.70
2023-05-20T06:23:09.217Z,64.30
2023-05-20T06:24:11.881Z,64.80
2023-05-20T06:25:15.007Z,64.60
2023-05-20T06:26:17.176Z,64.60
2023-05-20T06:27:19.332Z,64.00
2023-05-20T06:28:21.618Z,63.40
2023-05-20T06:29:24.083Z,62.60
2023-05-20T06:30:26.320Z,62.20
2023-05-20T06:31:30.278Z,62.30
2023-05-20T06:32:32.690Z,62.50
2023-05-20T06:33:35.260Z,62.40
2023-05-20T06:34:37.736Z,62.20
2023-05-20T06:35:40.003Z,61.90
2023-05-20T06:36:43.595Z,61.70
2023-05-20T06:37:47.326Z,61.70
2023-05-20T06:38:50.627Z,61.20
2023-05-20T06:39:54.140Z,61.10
2023-05-20T06:40:56.471Z,60.60
2023-05-20T06:41:58.865Z,59.60
2023-05-20T06:43:01.105Z,58.80
2023-05-20T06:44:03.370Z,58.90
2023-05-20T06:45:06.535Z,59.00
2023-05-20T06:46:08.820Z,58.80
2023-05-20T06:47:11.764Z,58.60
2023-05-20T06:48:13.919Z,58.30
2023-05-20T06:49:16.137Z,58.30
2023-05-20T06:50:18.480Z,58.50
2023-05-20T06:51:20.693Z,58.30
2023-05-20T06:52:24.236Z,58.30
2023-05-20T06:53:26.701Z,58.10
2023-05-20T06:54:28.864Z,58.00
2023-05-20T06:55:31.187Z,57.80
2023-05-20T06:56:33.364Z,57.60
2023-05-20T06:57:35.642Z,57.50
2023-05-20T06:58:37.800Z,57.80
2023-05-20T06:59:40.022Z,58.10
2023-05-20T07:00:42.297Z,58.20
2023-05-20T07:01:44.588Z,58.30
2023-05-20T07:02:46.823Z,58.00
2023-05-20T07:03:49.104Z,57.60
2023-05-20T07:04:51.390Z,57.30
2023-05-20T07:05:53.599Z,57.10
2023-05-20T07:06:56.017Z,57.00
2023-05-20T07:07:59.593Z,56.90
2023-05-20T07:09:01.940Z,56.60
2023-05-20T07:10:05.972Z,56.80
2023-05-20T07:11:08.444Z,56.80
2023-05-20T07:12:10.687Z,56.90
2023-05-20T07:13:12.983Z,56.70
2023-05-20T07:14:15.150Z,56.60
2023-05-20T07:15:18.096Z,56.30
2023-05-20T07:16:20.722Z,56.60
2023-05-20T07:17:23.205Z,56.40
2023-05-20T07:18:25.561Z,56.40
2023-05-20T07:19:27.825Z,56.70
2023-05-20T07:20:30.148Z,56.90
2023-05-20T07:21:32.408Z,57.00
2023-05-20T07:22:34.609Z,56.90
2023-05-20T07:23:38.224Z,56.80
2023-05-20T07:24:40.460Z,56.70
2023-05-20T07:25:42.696Z,56.40
2023-05-20T07:26:44.978Z,56.20
2023-05-20T07:27:47.742Z,56.30
2023-05-20T07:28:49.960Z,56.10
2023-05-20T07:29:52.916Z,56.20
2023-05-20T07:30:57.273Z,55.90
2023-05-20T07:31:59.781Z,55.60
2023-05-20T07:33:02.397Z,55.60
2023-05-20T07:34:04.791Z,55.20
2023-05-20T07:35:07.743Z,55.20
2023-05-20T07:36:11.333Z,54.80
2023-05-20T07:37:13.963Z,54.80
2023-05-20T07:38:16.471Z,54.70
2023-05-20T07:39:20.082Z,54.30
2023-05-20T07:40:22.328Z,54.40
2023-05-20T07:41:24.626Z,54.50
2023-05-20T07:42:27.025Z,54.30
2023-05-20T07:43:29.186Z,54.30
2023-05-20T07:44:31.415Z,54.10
2023-05-20T07:45:35.970Z,53.80
2023-05-20T07:46:38.798Z,53.80
2023-05-20T07:47:41.399Z,53.70
2023-05-20T07:48:44.690Z,53.60
2023-05-20T07:49:46.979Z,53.60
2023-05-20T07:50:49.208Z,53.70
2023-05-20T07:51:51.717Z,53.90
2023-05-20T07:52:56.788Z,53.40
2023-05-20T07:53:59.462Z,53.10
2023-05-20T07:55:03.974Z,53.20
2023-05-20T07:56:06.957Z,53.40
2023-05-20T07:57:09.232Z,53.00
2023-05-20T07:58:11.523Z,52.90
2023-05-20T07:59:13.741Z,53.10
2023-05-20T08:00:16.363Z,53.10
2023-05-20T08:01:18.564Z,53.00
2023-05-20T08:02:20.829Z,53.00
2023-05-20T08:03:23.753Z,52.80
2023-05-20T08:04:27.780Z,52.70
2023-05-20T08:05:30.188Z,52.00
2023-05-20T08:06:32.757Z,51.60
2023-05-20T08:07:35.100Z,52.10
2023-05-20T08:08:37.600Z,51.90
2023-05-20T08:09:39.820Z,51.80
2023-05-20T08:10:43.438Z,51.60
2023-05-20T08:11:47.385Z,51.40
2023-05-20T08:12:50.122Z,51.30
2023-05-20T08:13:52.326Z,51.10
2023-05-20T08:14:54.797Z,51.00
2023-05-20T08:15:57.116Z,50.90
2023-05-20T08:17:00.202Z,50.80
2023-05-20T08:18:02.449Z,50.70
2023-05-20T08:19:04.734Z,50.90
2023-05-20T08:20:11.036Z,51.20
2023-05-20T08:21:14.136Z,51.00
2023-05-20T08:22:16.309Z,50.60
2023-05-20T08:23:18.473Z,50.70
2023-05-20T08:24:20.743Z,50.80
2023-05-20T08:25:23.803Z,50.70
2023-05-20T08:26:27.667Z,50.80
2023-05-20T08:27:29.909Z,50.90
2023-05-20T08:28:32.154Z,51.30
2023-05-20T08:29:34.378Z,51.40
2023-05-20T08:30:36.596Z,51.60
2023-05-20T08:31:38.833Z,51.90
2023-05-20T08:32:41.301Z,51.70
2023-05-20T08:33:43.710Z,51.80
2023-05-20T08:34:47.239Z,51.80
2023-05-20T08:35:51.633Z,51.30
2023-05-20T08:37:02.056Z,50.70
2023-05-20T08:38:12.028Z,50.20
2023-05-20T08:39:16.138Z,50.40
2023-05-20T08:40:22.913Z,50.80
2023-05-20T08:41:27.343Z,51.80
2023-05-20T08:42:32.469Z,52.20
2023-05-20T08:43:35.158Z,52.10
2023-05-20T08:44:37.908Z,51.90
2023-05-20T08:45:40.224Z,51.60
2023-05-20T08:46:43.271Z,51.30
2023-05-20T08:47:46.209Z,51.30
2023-05-20T08:48:49.285Z,51.00
2023-05-20T08:49:51.733Z,50.80
2023-05-20T08:50:57.357Z,51.00
2023-05-20T08:52:01.219Z,51.20
2023-05-20T08:53:04.670Z,51.10
2023-05-20T08:54:08.849Z,51.50
2023-05-20T08:55:15.017Z,51.90
2023-05-20T08:56:18.194Z,51.70
2023-05-20T08:57:22.333Z,50.80
2023-05-20T08:58:25.160Z,50.70
2023-05-20T08:59:29.161Z,51.00
2023-05-20T09:00:32.220Z,51.40
2023-05-20T09:01:40.129Z,51.50
2023-05-20T09:02:43.082Z,51.60
2023-05-20T09:03:45.401Z,51.60
2023-05-20T09:04:47.645Z,51.50
2023-05-20T09:05:50.198Z,51.50
2023-05-20T09:06:52.592Z,51.50
2023-05-20T09:08:06.823Z,51.50
2023-05-20T09:09:11.092Z,50.50
2023-05-20T09:10:16.291Z,50.40
2023-05-20T09:11:19.232Z,50.00
2023-05-20T09:12:23.095Z,50.30
2023-05-20T09:13:25.475Z,50.30
2023-05-20T09:14:28.669Z,50.20
2023-05-20T09:15:30.970Z,50.80
2023-05-20T09:16:33.329Z,51.00
2023-05-20T09:17:37.133Z,51.20
2023-05-20T09:18:40.325Z,51.50
2023-05-20T09:19:42.601Z,52.00
2023-05-20T09:20:47.728Z,51.50
2023-05-20T09:21:52.588Z,50.50
2023-05-20T09:22:54.894Z,49.80
2023-05-20T09:23:59.258Z,49.80
2023-05-20T09:25:02.047Z,50.10
2023-05-20T09:26:04.734Z,49.90
2023-05-20T09:27:07.230Z,49.40
2023-05-20T09:28:11.945Z,49.20
2023-05-20T09:29:14.195Z,49.50
2023-05-20T09:30:19.893Z,49.90
2023-05-20T09:31:25.737Z,50.50
2023-05-20T09:32:30.789Z,49.90
2023-05-20T09:33:35.020Z,50.00
2023-05-20T09:34:37.697Z,49.90
2023-05-20T09:35:40.017Z,49.50
2023-05-20T09:36:43.855Z,49.20
2023-05-20T09:37:48.043Z,49.10
2023-05-20T09:38:53.693Z,49.20
2023-05-20T09:39:58.208Z,49.00
2023-05-20T09:41:02.671Z,49.10
2023-05-20T09:42:14.847Z,48.80
2023-05-20T09:43:18.752Z,48.70
2023-05-20T09:44:23.323Z,48.60
2023-05-20T09:45:25.709Z,48.40
2023-05-20T09:46:28.439Z,48.30
2023-05-20T09:47:34.840Z,48.30
2023-05-20T09:48:49.324Z,48.20
2023-05-20T09:49:58.801Z,48.10
2023-05-20T09:51:08.197Z,47.90
2023-05-20T09:52:16.862Z,48.10
2023-05-20T09:53:24.218Z,47.80
2023-05-20T09:54:29.551Z,47.70
2023-05-20T09:55:36.689Z,47.50
2023-05-20T09:56:42.434Z,47.30
2023-05-20T09:57:45.249Z,47.60
2023-05-20T09:58:51.280Z,47.60
2023-05-20T09:59:56.537Z,48.10
2023-05-20T10:00:59.104Z,48.00
2023-05-20T10:02:01.654Z,47.80
2023-05-20T10:03:14.119Z,47.30
2023-05-20T10:04:17.519Z,47.50
2023-05-20T10:05:24.424Z,47.70
2023-05-20T10:07:09.589Z,47.40
2023-05-20T10:08:45.856Z,47.10
2023-05-20T10:10:00.028Z,47.00
2023-05-20T10:11:12.947Z,47.30
2023-05-20T10:12:28.131Z,47.30
2023-05-20T10:13:46.550Z,47.50
2023-05-20T10:15:07.187Z,47.60
2023-05-20T10:16:18.220Z,47.70
2023-05-20T10:17:31.796Z,47.80
2023-05-20T10:18:47.010Z,47.90
2023-05-20T10:19:50.771Z,47.30
2023-05-20T10:20:53.062Z,47.30
2023-05-20T10:22:03.061Z,47.60
2023-05-20T10:23:05.694Z,47.30
2023-05-20T10:24:08.630Z,47.40
2023-05-20T10:25:23.563Z,47.60
2023-05-20T10:26:35.946Z,47.30
2023-05-20T10:27:48.678Z,47.10
2023-05-20T10:28:51.853Z,47.20
2023-05-20T10:30:08.511Z,47.10
2023-05-20T10:31:21.229Z,47.40
2023-05-20T10:32:27.672Z,47.40
2023-05-20T10:33:42.501Z,47.90
2023-05-20T10:34:50.689Z,47.60
2023-05-20T10:35:53.257Z,47.70
2023-05-20T10:36:59.457Z,48.10
2023-05-20T10:38:10.701Z,47.20
2023-05-20T10:39:18.429Z,46.80
2023-05-20T10:40:22.144Z,46.00
2023-05-20T10:41:27.184Z,45.70
2023-05-20T10:42:30.471Z,45.40
2023-05-20T10:43:32.762Z,45.00
2023-05-20T10:44:44.932Z,44.90
2023-05-20T10:45:52.558Z,44.40
2023-05-20T10:47:21.064Z,44.30
2023-05-20T10:48:28.761Z,44.10
2023-05-20T10:49:35.284Z,44.20
2023-05-20T10:50:40.565Z,43.40
2023-05-20T10:51:45.891Z,42.90
2023-05-20T10:52:48.080Z,43.50
2023-05-20T10:53:54.435Z,43.60
2023-05-20T10:54:58.015Z,43.30
2023-05-20T10:56:00.343Z,43.70
2023-05-20T10:57:08.039Z,43.70
2023-05-20T10:58:10.829Z,42.80
2023-05-20T10:59:13.151Z,42.50
2023-05-20T11:00:16.750Z,42.10
2023-05-20T11:01:25.073Z,41.80
2023-05-20T11:02:28.810Z,41.50
2023-05-20T11:03:31.957Z,41.60
2023-05-20T11:04:34.734Z,42.30
2023-05-20T11:05:39.129Z,43.00
2023-05-20T11:06:51.010Z,43.10
2023-05-20T11:08:01.646Z,43.00
2023-05-20T11:09:08.239Z,42.40
2023-05-20T11:10:11.324Z,42.30
2023-05-20T11:11:15.275Z,41.90
2023-05-20T11:12:17.706Z,42.40
2023-05-20T11:13:20.560Z,43.00
2023-05-20T11:14:23.136Z,42.90
2023-05-20T11:15:25.672Z,42.10
2023-05-20T11:16:29.393Z,41.40
2023-05-20T11:17:31.929Z,41.00
2023-05-20T11:18:34.201Z,40.60
2023-05-20T11:19:38.003Z,40.50
2023-05-20T11:20:40.487Z,40.30
2023-05-20T11:21:46.311Z,41.20
2023-05-20T11:22:50.671Z,42.50
2023-05-20T11:23:53.139Z,41.50
2023-05-20T11:24:55.637Z,40.40
2023-05-20T11:25:58.690Z,39.30
2023-05-20T11:27:02.176Z,39.40
2023-05-20T11:28:04.744Z,39.80
2023-05-20T11:29:07.239Z,39.60
2023-05-20T11:30:12.081Z,39.20
2023-05-20T11:31:14.372Z,39.10
2023-05-20T11:32:20.445Z,39.50
2023-05-20T11:33:27.444Z,39.40
2023-05-20T11:34:35.111Z,39.10
2023-05-20T11:35:45.493Z,38.90
2023-05-20T11:36:48.210Z,39.20
2023-05-20T11:37:56.294Z,39.60
2023-05-20T11:39:01.195Z,38.90
2023-05-20T11:40:07.960Z,38.50
2023-05-20T11:41:10.160Z,38.80
2023-05-20T11:42:12.350Z,39.40
2023-05-20T11:43:15.077Z,38.70
2023-05-20T11:44:20.703Z,38.10
2023-05-20T11:45:23.167Z,38.10
2023-05-20T11:46:25.557Z,38.20
2023-05-20T11:47:29.184Z,38.00
2023-05-20T11:48:31.494Z,38.00
2023-05-20T11:49:40.574Z,37.90
2023-05-20T11:50:44.058Z,37.80
2023-05-20T11:51:46.288Z,38.00
2023-05-20T11:52:57.638Z,38.20
2023-05-20T11:54:01.405Z,37.40
2023-05-20T11:55:04.287Z,37.10
2023-05-20T11:56:06.646Z,37.10
2023-05-20T11:57:08.899Z,37.10
2023-05-20T11:58:11.209Z,37.40
2023-05-20T11:59:17.201Z,37.70
2023-05-20T12:00:19.553Z,37.40
2023-05-20T12:01:23.172Z,37.30
2023-05-20T12:02:26.170Z,36.90
2023-05-20T12:03:31.811Z,36.30
2023-05-20T12:04:36.541Z,35.60
2023-05-20T12:05:39.092Z,36.10
2023-05-20T12:06:44.333Z,35.40
2023-05-20T12:07:49.620Z,35.50
2023-05-20T12:08:52.241Z,35.20
2023-05-20T12:09:54.636Z,35.20
2023-05-20T12:10:57.234Z,35.30
2023-05-20T12:11:59.582Z,35.40
2023-05-20T12:13:03.320Z,37.10
2023-05-20T12:14:08.983Z,38.70
2023-05-20T12:15:12.151Z,39.50
2023-05-20T12:16:17.459Z,40.10
2023-05-20T12:17:19.802Z,40.40
2023-05-20T12:18:27.084Z,40.30
2023-05-20T12:19:31.475Z,40.10
2023-05-20T12:20:35.357Z,39.50
2023-05-20T12:21:38.019Z,39.30
2023-05-20T12:22:40.596Z,39.50
2023-05-20T12:23:42.898Z,39.80
2023-05-20T12:24:45.181Z,40.20
2023-05-20T12:25:49.922Z,40.30
2023-05-20T12:26:55.738Z,40.40
2023-05-20T12:27:59.131Z,40.30
2023-05-20T12:29:01.703Z,40.20
2023-05-20T12:30:09.904Z,40.70
2023-05-20T12:31:12.141Z,40.80
2023-05-20T12:32:14.685Z,40.70
2023-05-20T12:33:20.873Z,40.50
2023-05-20T12:34:23.266Z,40.10
2023-05-20T12:35:37.575Z,39.70
2023-05-20T12:36:39.843Z,38.40
2023-05-20T12:37:43.092Z,37.10
2023-05-20T12:38:50.852Z,36.50
2023-05-20T12:39:53.090Z,36.40
2023-05-20T12:40:55.568Z,36.20
2023-05-20T12:41:57.910Z,35.80
2023-05-20T12:43:01.357Z,35.60
2023-05-20T12:44:03.669Z,35.50
2023-05-20T12:45:07.110Z,35.70
2023-05-20T12:46:09.779Z,34.90
2023-05-20T12:47:11.995Z,34.60
2023-05-20T12:48:14.228Z,34.20
2023-05-20T12:49:16.476Z,33.80
2023-05-20T12:50:18.799Z,34.30
2023-05-20T12:51:22.598Z,34.20
2023-05-20T12:52:25.783Z,33.90
2023-05-20T12:53:28.201Z,33.60
2023-05-20T12:54:30.417Z,33.60
2023-05-20T12:55:32.629Z,33.70
2023-05-20T12:56:35.069Z,33.40
2023-05-20T12:57:37.453Z,33.20
2023-05-20T12:58:39.798Z,33.00
2023-05-20T12:59:42.071Z,32.60
2023-05-20T13:00:44.312Z,32.40
2023-05-20T13:01:46.754Z,32.40
2023-05-20T13:02:49.412Z,32.20
2023-05-20T13:03:53.496Z,31.80
2023-05-20T13:04:56.005Z,31.90
2023-05-20T13:06:02.156Z,31.80
2023-05-20T13:07:06.257Z,31.70
2023-05-20T13:08:10.244Z,31.20
2023-05-20T13:09:12.957Z,31.60
2023-05-20T13:10:15.583Z,31.90
2023-05-20T13:11:17.896Z,32.00
2023-05-20T13:12:20.151Z,31.80
2023-05-20T13:13:22.510Z,32.20
2023-05-20T13:14:24.796Z,31.70
2023-05-20T13:15:37.174Z,31.30
2023-05-20T13:16:45.547Z,31.00
2023-05-20T13:17:48.148Z,31.50
2023-05-20T13:18:50.647Z,31.30
2023-05-20T13:19:53.072Z,31.50
2023-05-20T13:21:00.135Z,31.30
2023-05-20T13:22:02.641Z,30.80
2023-05-20T13:23:06.816Z,31.00
2023-05-20T13:24:09.246Z,31.20
2023-05-20T13:25:17.930Z,31.30
2023-05-20T13:26:20.661Z,31.60
2023-05-20T13:27:23.189Z,31.70
2023-05-20T13:28:25.675Z,31.60
2023-05-20T13:29:28.249Z,31.60
2023-05-20T13:30:30.520Z,31.40
2023-05-20T13:31:32.688Z,31.40
2023-05-20T13:32:35.165Z,31.70
2023-05-20T13:33:37.382Z,31.70
2023-05-20T13:34:39.841Z,31.80
2023-05-20T13:35:42.382Z,31.80
2023-05-20T13:36:45.436Z,31.70
2023-05-20T13:37:50.212Z,31.70
2023-05-20T13:38:54.038Z,31.60
2023-05-20T13:39:56.374Z,31.70
2023-05-20T13:40:59.539Z,31.40
2023-05-20T13:42:01.787Z,31.60